createdAt,value
2018-04-24T00:01:41.401Z,99.90
2018-04-24T00:04:08.581Z,99.90
2018-04-24T00:06:35.055Z,99.90
2018-04-24T00:09:02.443Z,99.90
2018-04-24T00:11:29.604Z,99.90
2018-04-24T00:13:56.789Z,99.90
2018-04-24T00:16:23.236Z,99.90
2018-04-24T00:18:50.404Z,99.90
2018-04-24T00:21:17.586Z,99.90
2018-04-24T00:23:44.781Z,99.90
2018-04-24T00:26:11.359Z,99.90
2018-04-24T00:28:38.496Z,99.90
2018-04-24T00:31:05.004Z,99.90
2018-04-24T00:33:31.453Z,99.90
2018-04-24T00:35:57.968Z,99.90
2018-04-24T00:38:25.239Z,99.90
2018-04-24T00:40:52.512Z,99.90
2018-04-24T00:43:18.937Z,99.90
2018-04-24T00:45:45.382Z,99.90
2018-04-24T00:48:11.829Z,99.90
2018-04-24T00:50:38.280Z,99.90
2018-04-24T00:53:16.847Z,99.90
2018-04-24T00:55:44.019Z,99.90
2018-04-24T00:58:11.187Z,99.90
2018-04-24T01:00:37.670Z,99.90
2018-04-24T01:03:04.100Z,99.90
2018-04-24T01:05:31.262Z,99.90
2018-04-24T01:07:57.690Z,99.90
2018-04-24T01:10:24.308Z,99.90
2018-04-24T01:12:50.862Z,99.90
2018-04-24T01:15:18.025Z,99.90
2018-04-24T01:17:45.309Z,99.90
2018-04-24T01:20:12.892Z,99.90
2018-04-24T01:22:40.089Z,99.90
2018-04-24T01:25:06.547Z,99.90
2018-04-24T01:27:32.997Z,99.90
2018-04-24T01:30:00.051Z,99.90
2018-04-24T01:32:27.227Z,99.90
2018-04-24T01:34:53.671Z,99.90
2018-04-24T01:37:20.896Z,99.90
2018-04-24T01:39:47.359Z,99.90
2018-04-24T01:42:13.867Z,99.90
2018-04-24T01:44:40.421Z,99.90
2018-04-24T01:47:07.616Z,99.90
2018-04-24T01:49:34.080Z,99.90
2018-04-24T01:52:00.489Z,99.90
2018-04-24T01:54:26.912Z,99.90
2018-04-24T01:56:53.327Z,99.90
2018-04-24T01:59:19.810Z,99.90
2018-04-24T02:01:46.223Z,99.90
2018-04-24T02:04:13.381Z,99.90
2018-04-24T02:06:39.968Z,99.90
2018-04-24T02:09:06.439Z,99.90
2018-04-24T02:11:32.977Z,99.90
2018-04-24T02:14:00.251Z,99.90
2018-04-24T02:16:27.524Z,99.90
2018-04-24T02:18:54.808Z,99.90
2018-04-24T02:21:21.280Z,99.90
2018-04-24T02:23:47.814Z,99.90
2018-04-24T02:26:14.996Z,99.90
2018-04-24T02:28:41.442Z,99.90
2018-04-24T02:31:08.680Z,99.90
2018-04-24T02:33:35.774Z,99.90
2018-04-24T02:36:03.082Z,99.90
2018-04-24T02:38:29.739Z,99.90
2018-04-24T02:40:56.284Z,99.90
2018-04-24T02:43:22.704Z,99.90
2018-04-24T02:45:49.306Z,99.90
2018-04-24T02:48:15.762Z,99.90
2018-04-24T02:50:42.233Z,99.90
2018-04-24T02:53:08.711Z,99.90
2018-04-24T02:55:35.184Z,99.90
2018-04-24T02:58:01.688Z,99.90
2018-04-24T03:00:28.143Z,99.90
2018-04-24T03:02:54.587Z,99.90
2018-04-24T03:05:21.868Z,99.90
2018-04-24T03:07:48.430Z,99.90
2018-04-24T03:10:14.958Z,99.90
2018-04-24T03:12:43.077Z,99.90
2018-04-24T03:15:09.522Z,99.90
2018-04-24T03:17:36.807Z,99.90
2018-04-24T03:20:04.089Z,99.90
2018-04-24T03:22:30.538Z,99.90
2018-04-24T03:24:57.735Z,99.90
2018-04-24T03:27:24.221Z,99.90
2018-04-24T03:29:50.657Z,99.90
2018-04-24T03:32:17.099Z,99.90
2018-04-24T03:34:43.537Z,99.90
2018-04-24T03:37:10.717Z,99.90
2018-04-24T03:39:37.176Z,99.90
2018-04-24T03:42:03.669Z,99.90
2018-04-24T03:44:30.080Z,99.90
2018-04-24T03:46:57.239Z,99.90
2018-04-24T03:49:24.399Z,99.90
2018-04-24T03:51:51.611Z,99.90
2018-04-24T03:54:18.071Z,99.90
2018-04-24T03:56:44.537Z,99.90
2018-04-24T03:59:11.069Z,99.90
2018-04-24T04:01:37.626Z,99.90
2018-04-24T04:04:04.098Z,99.90
2018-04-24T04:06:30.610Z,99.90
2018-04-24T04:08:57.097Z,99.90
2018-04-24T04:11:23.622Z,99.90
2018-04-24T04:13:49.996Z,99.90
2018-04-24T04:16:17.176Z,99.90
2018-04-24T04:18:55.912Z,99.90
2018-04-24T04:21:34.539Z,99.90
2018-04-24T04:24:13.166Z,99.90
2018-04-24T04:26:40.544Z,99.90
2018-04-24T04:29:06.961Z,99.90
2018-04-24T04:31:33.457Z,99.90
2018-04-24T04:33:59.879Z,99.90
2018-04-24T04:36:26.475Z,99.90
2018-04-24T04:38:52.947Z,99.90
2018-04-24T04:41:19.484Z,99.90
2018-04-24T04:43:46.761Z,99.90
2018-04-24T04:46:13.316Z,99.90
2018-04-24T04:48:40.529Z,99.90
2018-04-24T04:51:06.998Z,99.90
2018-04-24T04:53:33.504Z,99.90
2018-04-24T04:56:00.692Z,99.90
2018-04-24T04:58:27.249Z,99.90
2018-04-24T05:00:53.683Z,99.90
2018-04-24T05:03:20.892Z,99.90
2018-04-24T05:05:47.362Z,99.90
2018-04-24T05:08:13.811Z,99.90
2018-04-24T05:10:40.335Z,99.90
2018-04-24T05:13:07.511Z,99.90
2018-04-24T05:15:33.963Z,99.90
2018-04-24T05:18:00.405Z,99.90
2018-04-24T05:20:26.842Z,99.90
2018-04-24T05:22:53.335Z,98.70
2018-04-24T05:25:20.614Z,96.60
2018-04-24T05:27:47.098Z,96.50
2018-04-24T05:30:13.726Z,95.00
2018-04-24T05:32:42.106Z,93.30
2018-04-24T05:35:09.288Z,91.40
2018-04-24T05:37:36.572Z,90.00
2018-04-24T05:40:03.131Z,90.00
2018-04-24T05:42:29.586Z,86.70
2018-04-24T05:44:57.119Z,84.80
2018-04-24T05:47:23.568Z,82.20
2018-04-24T05:49:50.183Z,78.70
2018-04-24T05:52:16.712Z,75.30
2018-04-24T05:54:43.119Z,72.30
2018-04-24T05:57:09.555Z,70.00
2018-04-24T05:59:36.111Z,68.10
2018-04-24T06:02:03.487Z,64.60
2018-04-24T06:04:30.655Z,63.50
2018-04-24T06:06:57.934Z,60.20
2018-04-24T06:09:25.202Z,58.10
2018-04-24T06:11:51.706Z,58.00
2018-04-24T06:14:18.210Z,57.30
2018-04-24T06:16:45.569Z,54.80
2018-04-24T06:19:12.017Z,54.60
2018-04-24T06:21:38.492Z,46.30
2018-04-24T06:24:04.971Z,47.30
2018-04-24T06:26:32.156Z,46.90
2018-04-24T06:28:58.699Z,46.90
2018-04-24T06:31:25.978Z,45.80
2018-04-24T06:33:52.425Z,45.70
2018-04-24T06:36:19.623Z,46.00
2018-04-24T06:38:46.163Z,46.00
2018-04-24T06:41:13.217Z,46.90
2018-04-24T06:43:40.504Z,49.40
2018-04-24T06:46:07.664Z,50.60
2018-04-24T06:48:34.955Z,52.20
2018-04-24T06:51:02.152Z,52.50
2018-04-24T06:53:28.594Z,52.50
2018-04-24T06:55:55.094Z,52.80
2018-04-24T06:58:21.618Z,53.70
2018-04-24T07:00:48.264Z,55.20
2018-04-24T07:03:14.816Z,55.80
2018-04-24T07:05:42.044Z,57.40
2018-04-24T07:08:08.653Z,57.40
2018-04-24T07:10:35.129Z,57.70
2018-04-24T07:13:01.770Z,55.70
2018-04-24T07:15:28.954Z,49.20
2018-04-24T07:17:55.402Z,49.20
2018-04-24T07:20:21.951Z,46.40
2018-04-24T07:22:49.190Z,42.30
2018-04-24T07:25:15.635Z,42.30
2018-04-24T07:27:42.145Z,40.90
2018-04-24T07:30:08.589Z,40.10
2018-04-24T07:32:35.870Z,40.70
2018-04-24T07:35:03.147Z,39.70
2018-04-24T07:37:29.635Z,39.70
2018-04-24T07:39:56.162Z,39.20
2018-04-24T07:42:23.321Z,37.30
2018-04-24T07:44:50.608Z,36.40
2018-04-24T07:47:17.774Z,35.60
2018-04-24T07:49:44.964Z,34.30
2018-04-24T07:52:11.510Z,34.30
2018-04-24T07:54:38.070Z,34.60
2018-04-24T07:57:05.300Z,34.40
2018-04-24T07:59:31.716Z,34.50
2018-04-24T08:01:58.220Z,34.60
2018-04-24T08:04:24.678Z,34.30
2018-04-24T08:06:51.170Z,34.50
2018-04-24T08:09:18.386Z,33.90
2018-04-24T08:11:44.818Z,33.90
2018-04-24T08:14:11.357Z,34.40
2018-04-24T08:16:38.613Z,35.10
2018-04-24T08:19:05.090Z,35.10
2018-04-24T08:21:32.257Z,35.60
2018-04-24T08:23:59.407Z,36.40
2018-04-24T08:26:25.889Z,36.40
2018-04-24T08:28:53.065Z,38.70
2018-04-24T08:31:19.531Z,38.70
2018-04-24T08:33:46.077Z,39.80
2018-04-24T08:36:12.411Z,40.70
2018-04-24T08:38:39.572Z,42.40
2018-04-24T08:41:06.688Z,42.40
2018-04-24T08:43:33.128Z,43.80
2018-04-24T08:46:00.899Z,45.30
2018-04-24T08:48:28.069Z,45.60
2018-04-24T08:50:55.216Z,46.00
2018-04-24T08:53:21.708Z,45.90
2018-04-24T08:55:48.886Z,47.10
2018-04-24T08:58:16.162Z,47.70
2018-04-24T09:00:42.549Z,47.70
2018-04-24T09:03:09.062Z,48.20
2018-04-24T09:05:36.287Z,49.00
2018-04-24T09:08:02.705Z,49.00
2018-04-24T09:10:29.174Z,49.00
2018-04-24T09:12:55.607Z,49.10
2018-04-24T09:15:22.927Z,49.40
2018-04-24T09:17:49.400Z,49.40
2018-04-24T09:20:15.858Z,49.20
2018-04-24T09:22:42.360Z,49.20
2018-04-24T09:25:08.844Z,49.30
2018-04-24T09:27:35.255Z,49.30
2018-04-24T09:30:03.572Z,49.50
2018-04-24T09:32:30.040Z,49.50
2018-04-24T09:34:56.480Z,49.40
2018-04-24T09:37:23.650Z,49.90
2018-04-24T09:39:50.834Z,49.60
2018-04-24T09:42:17.221Z,49.60
2018-04-24T09:44:43.633Z,49.70
2018-04-24T09:47:10.941Z,49.30
2018-04-24T09:49:37.476Z,49.30
2018-04-24T09:52:04.031Z,49.30
2018-04-24T09:54:30.464Z,49.40
2018-04-24T09:56:57.557Z,49.40
2018-04-24T09:59:24.744Z,49.20
2018-04-24T10:01:51.239Z,49.20
2018-04-24T10:04:17.744Z,49.30
2018-04-24T10:06:44.152Z,48.90
2018-04-24T10:09:10.565Z,48.70
2018-04-24T10:11:37.009Z,48.60
2018-04-24T10:14:03.457Z,48.60
2018-04-24T10:16:30.741Z,48.70
2018-04-24T10:18:57.229Z,48.70
2018-04-24T10:21:23.759Z,48.70
2018-04-24T10:23:50.915Z,49.00
2018-04-24T10:26:18.103Z,49.50
2018-04-24T10:28:44.559Z,49.40
2018-04-24T10:31:11.114Z,49.70
2018-04-24T10:33:37.539Z,49.80
2018-04-24T10:36:03.973Z,49.90
2018-04-24T10:38:31.194Z,50.00
2018-04-24T10:40:58.477Z,50.10
2018-04-24T10:43:25.039Z,50.10
2018-04-24T10:45:52.249Z,50.30
2018-04-24T10:48:18.738Z,50.30
2018-04-24T10:50:46.683Z,50.10
2018-04-24T10:53:13.109Z,50.00
2018-04-24T10:55:39.666Z,50.20
2018-04-24T10:58:06.875Z,50.00
2018-04-24T11:00:33.444Z,49.90
2018-04-24T11:02:59.870Z,49.80
2018-04-24T11:05:26.301Z,49.80
2018-04-24T11:07:53.462Z,50.40
2018-04-24T11:10:20.586Z,50.20
2018-04-24T11:12:47.038Z,50.10
2018-04-24T11:15:13.529Z,50.10
2018-04-24T11:17:40.787Z,50.30
2018-04-24T11:20:08.301Z,50.30
2018-04-24T11:22:34.770Z,49.80
2018-04-24T11:25:01.162Z,49.30
2018-04-24T11:27:27.611Z,49.50
2018-04-24T11:29:54.113Z,48.90
2018-04-24T11:32:20.717Z,49.30
2018-04-24T11:34:47.265Z,49.20
2018-04-24T11:37:14.451Z,49.20
2018-04-24T11:39:41.001Z,49.10
2018-04-24T11:42:07.556Z,48.60
2018-04-24T11:44:34.730Z,48.10
2018-04-24T11:47:02.106Z,48.00
2018-04-24T11:49:28.600Z,47.90
2018-04-24T11:51:55.224Z,48.80
2018-04-24T11:54:22.292Z,48.20
2018-04-24T11:56:48.851Z,48.10
2018-04-24T11:59:15.919Z,48.40
2018-04-24T12:01:42.353Z,48.00
2018-04-24T12:04:08.829Z,47.60
2018-04-24T12:06:35.300Z,47.70
2018-04-24T12:09:01.793Z,47.80
2018-04-24T12:11:29.633Z,47.60
2018-04-24T12:13:56.830Z,47.70
2018-04-24T12:16:23.303Z,47.10
2018-04-24T12:18:49.783Z,46.70
2018-04-24T12:21:17.813Z,48.20
2018-04-24T12:23:44.368Z,47.60
2018-04-24T12:26:11.663Z,47.10
2018-04-24T12:28:38.085Z,47.10
2018-04-24T12:31:05.480Z,47.00
2018-04-24T12:33:32.649Z,46.80
2018-04-24T12:35:59.824Z,46.40
2018-04-24T12:38:26.382Z,46.50
2018-04-24T12:40:52.948Z,46.50
2018-04-24T12:43:19.641Z,46.50
2018-04-24T12:45:46.102Z,46.30
2018-04-24T12:48:12.532Z,46.20
2018-04-24T12:50:38.989Z,46.40
2018-04-24T12:53:05.441Z,46.00
2018-04-24T12:55:32.733Z,45.50
2018-04-24T12:57:59.175Z,45.90
2018-04-24T13:00:25.604Z,46.00
2018-04-24T13:02:52.765Z,45.50
2018-04-24T13:05:19.200Z,45.30
2018-04-24T13:07:45.631Z,45.60
2018-04-24T13:10:12.204Z,45.90
2018-04-24T13:12:38.653Z,46.30
2018-04-24T13:15:05.114Z,46.50
2018-04-24T13:17:31.628Z,46.50
2018-04-24T13:19:58.069Z,46.40
2018-04-24T13:22:25.253Z,46.80
2018-04-24T13:24:52.529Z,46.60
2018-04-24T13:27:19.815Z,46.50
2018-04-24T13:29:46.288Z,46.50
2018-04-24T13:32:12.758Z,46.20
2018-04-24T13:34:39.199Z,46.10
2018-04-24T13:37:05.870Z,46.20
2018-04-24T13:39:33.908Z,46.40
2018-04-24T13:42:01.371Z,45.80
2018-04-24T13:44:27.868Z,45.70
2018-04-24T13:46:54.656Z,45.00
2018-04-24T13:49:21.237Z,44.40
2018-04-24T13:51:47.744Z,44.40
2018-04-24T13:54:14.926Z,44.80
2018-04-24T13:56:41.370Z,44.80
2018-04-24T13:59:07.931Z,44.70
2018-04-24T14:01:35.000Z,44.80
2018-04-24T14:04:01.476Z,45.00
2018-04-24T14:06:28.150Z,45.30
2018-04-24T14:08:54.678Z,45.50
2018-04-24T14:11:21.334Z,45.80
2018-04-24T14:13:48.205Z,46.00
2018-04-24T14:16:14.737Z,46.20
2018-04-24T14:18:41.933Z,46.20
2018-04-24T14:21:08.455Z,46.20
2018-04-24T14:23:35.149Z,46.40
2018-04-24T14:26:01.813Z,46.50
2018-04-24T14:28:28.512Z,46.50
2018-04-24T14:30:55.027Z,46.90
2018-04-24T14:33:22.248Z,46.60
2018-04-24T14:35:48.684Z,46.60
2018-04-24T14:38:15.218Z,46.60
2018-04-24T14:40:42.271Z,46.90
2018-04-24T14:43:09.455Z,46.90
2018-04-24T14:45:36.690Z,47.50
2018-04-24T14:48:03.181Z,47.40
2018-04-24T14:50:30.348Z,48.00
2018-04-24T14:52:58.149Z,47.90
2018-04-24T14:55:25.814Z,47.80
2018-04-24T14:57:52.403Z,47.80
2018-04-24T15:00:18.953Z,47.90
2018-04-24T15:02:46.226Z,47.70
2018-04-24T15:05:13.429Z,47.70
2018-04-24T15:07:39.956Z,47.70
2018-04-24T15:10:07.143Z,47.80
2018-04-24T15:12:33.559Z,47.80
2018-04-24T15:14:59.999Z,47.90
2018-04-24T15:17:27.207Z,47.70
2018-04-24T15:19:54.493Z,47.70
2018-04-24T15:22:20.904Z,47.70
2018-04-24T15:24:48.934Z,48.00
2018-04-24T15:27:15.394Z,47.90
2018-04-24T15:29:41.825Z,47.90
2018-04-24T15:32:09.024Z,48.40
2018-04-24T15:34:35.482Z,48.40
2018-04-24T15:37:01.941Z,48.60
2018-04-24T15:39:28.377Z,48.70
2018-04-24T15:41:55.548Z,48.40
2018-04-24T15:44:22.712Z,48.50
2018-04-24T15:46:51.689Z,49.20
2018-04-24T15:49:18.182Z,48.50
2018-04-24T15:51:44.604Z,48.60
2018-04-24T15:54:11.025Z,48.70
2018-04-24T15:56:37.453Z,48.90
2018-04-24T15:59:04.632Z,49.40
2018-04-24T16:01:31.818Z,49.60
2018-04-24T16:03:58.252Z,49.50
2018-04-24T16:06:26.564Z,50.20
2018-04-24T16:08:53.162Z,50.10
2018-04-24T16:11:19.718Z,50.30
2018-04-24T16:13:47.257Z,50.50
2018-04-24T16:16:13.802Z,50.50
2018-04-24T16:18:40.282Z,50.60
2018-04-24T16:21:06.855Z,50.70
2018-04-24T16:23:33.455Z,50.80
2018-04-24T16:26:01.434Z,51.00
2018-04-24T16:28:28.049Z,51.00
2018-04-24T16:30:54.495Z,51.20
2018-04-24T16:33:21.316Z,51.20
2018-04-24T16:35:47.895Z,51.20
2018-04-24T16:38:14.995Z,51.40
2018-04-24T16:40:41.518Z,51.50
2018-04-24T16:43:09.424Z,52.00
2018-04-24T16:45:36.727Z,52.10
2018-04-24T16:48:03.240Z,52.10
2018-04-24T16:50:29.710Z,52.00
2018-04-24T16:52:57.008Z,52.30
2018-04-24T16:55:23.424Z,52.10
2018-04-24T16:57:49.827Z,52.30
2018-04-24T17:00:16.292Z,52.50
2018-04-24T17:02:43.042Z,52.80
2018-04-24T17:05:09.520Z,52.90
2018-04-24T17:07:36.009Z,53.20
2018-04-24T17:10:02.915Z,53.40
2018-04-24T17:12:30.136Z,53.80
2018-04-24T17:14:56.594Z,53.80
2018-04-24T17:17:23.213Z,54.00
2018-04-24T17:19:49.771Z,54.30
2018-04-24T17:22:16.219Z,54.40
2018-04-24T17:24:42.676Z,54.60
2018-04-24T17:27:09.182Z,54.90
2018-04-24T17:29:35.799Z,55.30
2018-04-24T17:32:02.336Z,55.50
2018-04-24T17:34:28.687Z,55.70
2018-04-24T17:36:55.984Z,56.20
2018-04-24T17:39:22.455Z,56.10
2018-04-24T17:41:48.997Z,56.30
2018-04-24T17:44:15.557Z,56.50
2018-04-24T17:46:42.230Z,56.60
2018-04-24T17:49:08.672Z,56.90
2018-04-24T17:51:36.155Z,57.30
2018-04-24T17:54:02.916Z,57.30
2018-04-24T17:56:30.209Z,57.60
2018-04-24T17:58:56.703Z,57.90
2018-04-24T18:01:23.178Z,58.20
2018-04-24T18:03:51.013Z,58.60
2018-04-24T18:06:17.553Z,58.60
2018-04-24T18:08:44.214Z,58.60
2018-04-24T18:11:10.705Z,58.70
2018-04-24T18:13:37.229Z,58.80
2018-04-24T18:16:03.789Z,58.80
2018-04-24T18:18:30.245Z,58.90
2018-04-24T18:20:56.712Z,59.00
2018-04-24T18:23:23.147Z,59.10
2018-04-24T18:25:50.842Z,59.10
2018-04-24T18:28:17.408Z,59.10
2018-04-24T18:30:43.939Z,59.10
2018-04-24T18:33:11.248Z,59.30
2018-04-24T18:35:37.747Z,59.30
2018-04-24T18:38:05.671Z,59.60
2018-04-24T18:40:32.856Z,59.80
2018-04-24T18:42:59.326Z,59.80
2018-04-24T18:45:25.969Z,59.90
2018-04-24T18:47:52.627Z,60.00
2018-04-24T18:50:19.091Z,60.00
2018-04-24T18:52:45.948Z,60.30
2018-04-24T18:55:15.189Z,60.50
2018-04-24T18:57:44.113Z,60.80
2018-04-24T19:00:12.779Z,60.80
2018-04-24T19:02:40.262Z,61.20
2018-04-24T19:05:06.817Z,61.20
2018-04-24T19:07:33.239Z,61.50
2018-04-24T19:09:59.938Z,61.80
2018-04-24T19:12:26.732Z,63.10
2018-04-24T19:14:53.359Z,62.80
2018-04-24T19:17:20.952Z,63.50
2018-04-24T19:19:47.998Z,64.10
2018-04-24T19:22:15.229Z,65.00
2018-04-24T19:27:44.518Z,65.80
2018-04-24T19:30:10.975Z,66.10
2018-04-24T19:32:38.641Z,66.50
2018-04-24T19:35:05.854Z,67.60
2018-04-24T19:37:32.736Z,67.50
2018-04-24T19:40:05.486Z,67.90
2018-04-24T19:42:33.169Z,68.50
2018-04-24T19:44:59.723Z,68.90
2018-04-24T19:47:26.163Z,69.30
2018-04-24T19:49:58.824Z,69.70
2018-04-24T19:52:25.331Z,70.10
2018-04-24T19:54:58.601Z,71.10
2018-04-24T19:57:25.095Z,71.10
2018-04-24T19:59:52.273Z,71.90
2018-04-24T20:02:18.748Z,71.90
2018-04-24T20:04:45.178Z,72.50
2018-04-24T20:07:12.335Z,73.50
2018-04-24T20:09:38.816Z,73.40
2018-04-24T20:12:06.599Z,73.90
2018-04-24T20:14:33.060Z,74.30
2018-04-24T20:16:59.484Z,74.80
2018-04-24T20:19:27.500Z,76.20
2018-04-24T20:21:54.720Z,75.90
2018-04-24T20:24:21.229Z,75.90
2018-04-24T20:26:47.793Z,76.10
2018-04-24T20:29:14.214Z,76.60
2018-04-24T20:31:40.622Z,76.90
2018-04-24T20:34:07.134Z,77.30
2018-04-24T20:36:33.573Z,77.70
2018-04-24T20:39:00.007Z,78.90
2018-04-24T20:41:26.458Z,78.30
2018-04-24T20:43:52.980Z,78.80
2018-04-24T20:46:20.152Z,79.60
2018-04-24T20:48:47.340Z,79.90
2018-04-24T20:51:13.820Z,79.90
2018-04-24T20:53:40.394Z,80.20
2018-04-24T20:56:06.782Z,80.50
2018-04-24T20:58:33.924Z,81.20
2018-04-24T21:01:00.501Z,81.10
2018-04-24T21:03:27.089Z,81.30
2018-04-24T21:05:53.519Z,81.60
2018-04-24T21:08:19.933Z,81.90
2018-04-24T21:10:46.358Z,82.20
2018-04-24T21:13:12.859Z,82.20
2018-04-24T21:15:39.961Z,82.80
2018-04-24T21:18:06.401Z,82.60
2018-04-24T21:20:32.815Z,83.00
2018-04-24T21:22:59.407Z,83.00
2018-04-24T21:25:25.916Z,83.20
2018-04-24T21:27:52.353Z,83.40
2018-04-24T21:30:19.545Z,83.90
2018-04-24T21:32:46.012Z,83.70
2018-04-24T21:35:12.609Z,83.90
2018-04-24T21:37:38.959Z,84.10
2018-04-24T21:40:05.882Z,84.30
2018-04-24T21:42:33.162Z,84.50
2018-04-24T21:44:59.615Z,84.70
2018-04-24T21:47:26.166Z,84.80
2018-04-24T21:49:53.350Z,85.20
2018-04-24T21:52:19.776Z,85.20
2018-04-24T21:54:46.982Z,85.70
2018-04-24T21:57:13.444Z,85.50
2018-04-24T21:59:39.872Z,85.70
2018-04-24T22:02:07.052Z,86.10
2018-04-24T22:04:33.472Z,86.10
2018-04-24T22:07:01.142Z,86.40
2018-04-24T22:09:27.547Z,86.30
2018-04-24T22:11:54.001Z,86.40
2018-04-24T22:14:21.156Z,86.70
2018-04-24T22:16:48.342Z,86.90
2018-04-24T22:19:15.514Z,87.00
2018-04-24T22:21:42.677Z,87.20
2018-04-24T22:24:09.869Z,87.50
2018-04-24T22:26:36.287Z,87.50
2018-04-24T22:29:02.785Z,87.70
2018-04-24T22:31:29.237Z,87.80
2018-04-24T22:33:55.948Z,88.10
2018-04-24T22:36:22.369Z,88.20
2018-04-24T22:38:48.824Z,88.50
2018-04-24T22:41:16.094Z,88.80
2018-04-24T22:43:42.637Z,88.60
2018-04-24T22:46:09.827Z,89.00
2018-04-24T22:48:36.371Z,89.00
2018-04-24T22:51:03.646Z,89.20
2018-04-24T22:53:30.083Z,89.20
2018-04-24T22:55:58.141Z,89.50
2018-04-24T22:58:24.558Z,89.40
2018-04-24T23:00:50.999Z,89.50
2018-04-24T23:03:18.184Z,90.20
2018-04-24T23:05:44.632Z,89.60
2018-04-24T23:08:11.068Z,89.70
2018-04-24T23:10:49.712Z,89.90
2018-04-24T23:13:29.266Z,90.00
2018-04-24T23:16:07.764Z,89.90
2018-04-24T23:18:47.332Z,90.40
2018-04-24T23:21:14.283Z,90.00
2018-04-24T23:23:40.759Z,90.00
2018-04-24T23:26:07.264Z,90.00
2018-04-24T23:28:33.715Z,90.10
2018-04-24T23:31:01.764Z,90.20
2018-04-24T23:33:29.043Z,90.20
2018-04-24T23:35:55.481Z,90.10
2018-04-24T23:38:22.655Z,90.30
2018-04-24T23:40:49.885Z,90.30
2018-04-24T23:43:16.979Z,90.30
2018-04-24T23:45:43.447Z,90.30
2018-04-24T23:48:10.749Z,90.50
2018-04-24T23:50:37.160Z,90.40
2018-04-24T23:53:03.654Z,90.50
2018-04-24T23:55:30.830Z,90.50
2018-04-24T23:57:57.386Z,90.50
